Time;durP1;ratioP1;P1;durP2;ratioP2;P2;SDS_P1;SDS_P2;PMS_P1;PMS_P2;Temp;Humidity;BMP_temperature;BMP_pressure;BME280_temperature;BME280_humidity;BME280_pressure;Samples;Min_cycle;Max_cycle;Signal;HPM_P1;HPM_P2
2022/07/22 00:00:12;;;;;;;7.30;3.35;;;;;;;-144.47;50.04;53078.53;4936641;29;20401;-67
2022/07/22 00:02:38;;;;;;;8.80;4.00;;;;;;;-144.47;50.20;53070.59;4944314;28;20099;-69
2022/07/22 00:05:03;;;;;;;6.30;3.00;;;;;;;-144.47;50.41;53070.59;4945354;28;20036;-66
2022/07/22 00:07:29;;;;;;;9.43;3.50;;;;;;;-144.47;50.47;53092.44;4935234;29;20027;-70
2022/07/22 00:09:55;;;;;;;7.25;3.30;;;;;;;-144.47;50.38;53068.63;4945621;28;20544;-67
2022/07/22 00:12:20;;;;;;;5.65;3.22;;;;;;;-144.47;50.27;53068.63;4935068;29;20838;-69
2022/07/22 00:14:45;;;;;;;6.03;3.50;;;;;;;-144.47;50.39;53102.38;4945852;28;20250;-69
2022/07/22 00:17:11;;;;;;;11.00;3.88;;;;;;;-144.47;50.50;53098.41;4946166;29;20059;-69
2022/07/22 00:19:37;;;;;;;6.53;3.45;;;;;;;-144.47;50.70;53070.59;4932885;29;20047;-69
2022/07/22 00:22:03;;;;;;;6.38;3.13;;;;;;;-144.47;50.80;53098.41;4956881;28;20074;-68
2022/07/22 00:24:28;;;;;;;7.63;3.70;;;;;;;-144.47;50.78;53088.47;4948780;28;20101;-66
2022/07/22 00:26:54;;;;;;;9.40;3.13;;;;;;;-144.47;50.79;53110.31;4965103;28;20020;-66
2022/07/22 00:29:20;;;;;;;6.40;3.10;;;;;;;-144.47;50.86;53074.56;4942784;29;20042;-68
2022/07/22 00:31:45;;;;;;;8.07;3.70;;;;;;;-144.47;51.03;53108.34;4937451;28;20031;-67
2022/07/22 00:34:10;;;;;;;7.90;3.45;;;;;;;-144.47;51.26;53084.50;4940156;29;20036;-67
2022/07/22 00:36:36;;;;;;;8.30;3.85;;;;;;;-144.47;51.17;53090.47;4945559;29;20031;-68
2022/07/22 00:39:02;;;;;;;7.82;3.45;;;;;;;-144.47;51.29;53092.44;4939697;29;20038;-67
2022/07/22 00:41:28;;;;;;;6.28;3.47;;;;;;;-144.47;51.53;53092.44;4941453;29;20024;-66
2022/07/22 00:44:08;;;;;;;7.13;3.20;;;;;;;-144.47;51.45;53118.28;4942249;29;20484;-69
2022/07/22 00:46:35;;;;;;;6.57;3.28;;;;;;;-144.47;51.54;53112.31;4934921;28;20086;-67
2022/07/22 00:49:01;;;;;;;7.28;3.50;;;;;;;-144.47;51.52;53070.59;4933488;29;20548;-67
2022/07/22 00:51:28;;;;;;;8.05;3.72;;;;;;;-144.47;51.67;53100.41;4933191;29;20135;-67
2022/07/22 00:53:54;;;;;;;5.72;3.15;;;;;;;-144.47;51.80;53086.50;4933880;29;20028;-68
2022/07/22 00:56:20;;;;;;;5.68;3.10;;;;;;;-144.47;52.02;53106.34;4932945;29;20537;-69
2022/07/22 00:58:48;;;;;;;6.82;3.30;;;;;;;-144.47;52.11;53086.50;4943923;29;20114;-69
2022/07/22 01:01:15;;;;;;;8.63;3.70;;;;;;;-144.47;52.29;53122.25;4939505;28;20024;-67
2022/07/22 01:03:40;;;;;;;6.35;3.30;;;;;;;-144.47;52.37;53110.31;4940987;28;20253;-68
2022/07/22 01:06:06;;;;;;;7.32;3.67;;;;;;;-144.47;52.56;53134.16;4932710;29;20294;-67
2022/07/22 01:08:33;;;;;;;7.38;3.40;;;;;;;-144.47;53.01;53086.50;4932866;29;20035;-68
2022/07/22 01:11:13;;;;;;;8.65;3.50;;;;;;;-144.47;53.11;53118.28;4933115;29;20527;-69
2022/07/22 01:13:40;;;;;;;10.30;3.97;;;;;;;-144.47;53.30;53118.28;4945417;29;20042;-68
2022/07/22 01:16:07;;;;;;;8.05;3.13;;;;;;;-144.47;53.27;53094.44;4939475;29;20384;-71
2022/07/22 01:18:32;;;;;;;6.07;3.03;;;;;;;-144.47;53.72;53106.34;4938281;28;20498;-65
2022/07/22 01:20:58;;;;;;;6.38;3.67;;;;;;;-144.47;53.92;53086.50;4929405;28;20083;-67
2022/07/22 01:23:24;;;;;;;8.15;3.63;;;;;;;-144.47;53.86;53106.34;4917669;29;20050;-68
2022/07/22 01:25:49;;;;;;;5.68;3.00;;;;;;;-144.47;54.14;53106.34;4931813;29;20035;-69
2022/07/22 01:28:15;;;;;;;6.30;3.78;;;;;;;-144.47;54.20;53094.44;4931874;29;20031;-69
2022/07/22 01:30:40;;;;;;;7.97;3.55;;;;;;;-144.47;54.13;53096.41;4930180;29;20051;-68
2022/07/22 01:33:05;;;;;;;5.18;3.20;;;;;;;-144.47;54.23;53110.31;4934204;29;20051;-68
2022/07/22 01:35:31;;;;;;;9.98;4.18;;;;;;;-144.47;54.14;53124.22;4932861;29;20058;-69
2022/07/22 01:37:56;;;;;;;6.18;3.50;;;;;;;-144.47;54.49;53128.22;4930552;29;20031;-66
2022/07/22 01:40:21;;;;;;;5.80;3.42;;;;;;;-144.47;54.59;53100.41;4929623;29;20015;-66
2022/07/22 01:42:47;;;;;;;8.48;3.97;;;;;;;-144.47;54.73;53106.34;4932561;29;20023;-68
2022/07/22 01:45:13;;;;;;;7.03;4.00;;;;;;;-144.47;54.98;53116.28;4932847;29;20028;-68
2022/07/22 01:47:38;;;;;;;6.68;3.65;;;;;;;-144.47;55.10;53090.47;4931537;29;20027;-67
2022/07/22 01:50:07;;;;;;;5.85;3.47;;;;;;;-144.47;55.10;53122.25;4932478;29;20114;-66
2022/07/22 01:52:33;;;;;;;6.78;3.72;;;;;;;-144.47;55.31;53124.22;4930558;29;20039;-69
2022/07/22 01:54:58;;;;;;;9.13;4.32;;;;;;;-144.47;55.37;53124.22;4932390;29;20027;-69
2022/07/22 01:57:24;;;;;;;10.20;4.53;;;;;;;-144.47;55.67;53106.34;4931667;29;20031;-68
2022/07/22 01:59:49;;;;;;;17.00;4.28;;;;;;;-144.47;55.82;53146.09;4933150;29;20028;-67
2022/07/22 02:02:15;;;;;;;9.90;4.70;;;;;;;-144.47;56.15;53084.50;4931982;29;20059;-68
2022/07/22 02:04:40;;;;;;;11.35;4.18;;;;;;;-144.47;56.30;53124.22;4932396;29;20031;-68
2022/07/22 02:07:05;;;;;;;6.82;4.05;;;;;;;-144.47;56.40;53161.97;4929967;29;20078;-67
2022/07/22 02:09:30;;;;;;;6.47;4.15;;;;;;;-144.47;56.41;53148.06;4932158;29;20055;-67
2022/07/22 02:11:56;;;;;;;7.70;4.03;;;;;;;-144.47;56.77;53122.25;4929037;28;20070;-68
2022/07/22 02:14:21;;;;;;;7.57;4.18;;;;;;;-144.47;56.98;53122.25;4947023;29;20397;-68
2022/07/22 02:16:47;;;;;;;7.13;4.38;;;;;;;-144.47;57.02;53142.09;4931396;29;20055;-72
2022/07/22 02:19:12;;;;;;;8.60;4.65;;;;;;;-144.47;57.21;53106.34;4932171;29;20027;-69
2022/07/22 02:21:37;;;;;;;9.35;4.57;;;;;;;-144.47;57.24;53150.06;4931983;29;20115;-69
2022/07/22 02:24:03;;;;;;;8.45;4.65;;;;;;;-144.47;57.24;53156.00;4930561;29;20099;-68
2022/07/22 02:26:28;;;;;;;9.02;5.05;;;;;;;-144.47;57.32;53118.28;4931766;29;20122;-65
2022/07/22 02:28:54;;;;;;;9.07;4.43;;;;;;;-144.47;57.77;53144.09;4932258;29;20485;-68
2022/07/22 02:31:20;;;;;;;9.95;4.75;;;;;;;-144.47;57.72;53156.00;4930579;29;20028;-67
2022/07/22 02:33:46;;;;;;;15.55;5.20;;;;;;;-144.47;58.07;53138.13;4936197;29;20036;-67
2022/07/22 02:36:11;;;;;;;9.30;4.85;;;;;;;-144.47;58.05;53124.22;4932251;29;20079;-69
2022/07/22 02:38:36;;;;;;;9.75;5.15;;;;;;;-144.47;58.32;53154.03;4930131;29;20374;-70
2022/07/22 02:41:02;;;;;;;14.82;5.28;;;;;;;-144.47;58.55;53158.00;4931833;29;20111;-68
2022/07/22 02:43:27;;;;;;;11.13;5.68;;;;;;;-144.47;58.75;53142.09;4931641;29;20161;-67
2022/07/22 02:45:53;;;;;;;10.82;5.00;;;;;;;-144.47;58.53;53120.25;4935184;29;20027;-68
2022/07/22 02:48:18;;;;;;;8.73;5.40;;;;;;;-144.47;59.03;53122.25;4935060;29;20143;-67
2022/07/22 02:50:48;;;;;;;9.52;5.78;;;;;;;-144.47;59.09;53185.81;4936109;29;20051;-68
2022/07/22 02:53:14;;;;;;;9.25;5.22;;;;;;;-144.47;59.08;53148.06;4933293;29;20051;-66
2022/07/22 02:55:39;;;;;;;10.18;5.60;;;;;;;-144.47;59.02;53118.28;4935796;29;20034;-66
2022/07/22 02:58:08;;;;;;;9.77;5.55;;;;;;;-144.47;58.90;53136.16;4933599;29;20023;-65
2022/07/22 03:00:35;;;;;;;8.65;5.65;;;;;;;-144.47;59.20;53154.03;4931453;29;20036;-65
2022/07/22 03:03:00;;;;;;;10.98;5.97;;;;;;;-144.47;59.32;53112.31;4935070;29;20205;-65
2022/07/22 03:05:26;;;;;;;8.68;5.68;;;;;;;-144.47;59.49;53128.22;4935915;29;20099;-70
2022/07/22 03:07:51;;;;;;;11.00;5.60;;;;;;;-144.47;59.29;53144.09;4932357;29;20123;-70
2022/07/22 03:10:17;;;;;;;9.77;5.43;;;;;;;-144.47;59.27;53116.28;4935285;29;20111;-70
2022/07/22 03:12:42;;;;;;;10.15;5.30;;;;;;;-144.47;58.88;53191.78;4934438;29;20031;-69
2022/07/22 03:15:09;;;;;;;11.82;4.97;;;;;;;-144.47;58.76;53138.13;4935651;29;20078;-69
2022/07/22 03:17:35;;;;;;;11.57;4.95;;;;;;;-144.47;58.79;53161.97;4934128;29;20031;-69
2022/07/22 03:20:08;;;;;;;10.40;5.13;;;;;;;-144.47;58.79;53134.16;4935248;29;20549;-70
2022/07/22 03:22:34;;;;;;;9.18;4.72;;;;;;;-144.47;58.98;53173.88;4929533;29;20059;-69
2022/07/22 03:25:00;;;;;;;8.70;4.88;;;;;;;-144.47;59.00;53130.19;4933277;29;20142;-69
2022/07/22 03:27:26;;;;;;;9.20;5.20;;;;;;;-144.47;58.74;53138.13;4933387;29;20028;-66
2022/07/22 03:29:51;;;;;;;8.63;5.05;;;;;;;-144.47;58.57;53138.13;4933135;29;20024;-66
2022/07/22 03:32:16;;;;;;;8.98;4.65;;;;;;;-144.47;58.73;53152.03;4948843;23;20025;-65
2022/07/22 03:34:42;;;;;;;9.68;5.18;;;;;;;-144.47;58.67;53146.09;4958735;28;20114;-66
2022/07/22 03:37:07;;;;;;;9.05;5.30;;;;;;;-144.47;58.76;53165.94;4952447;28;20063;-68
2022/07/22 03:39:33;;;;;;;9.45;4.65;;;;;;;-144.47;58.49;53154.03;4953652;28;20058;-69
2022/07/22 03:41:58;;;;;;;9.27;4.93;;;;;;;-144.47;58.56;53142.09;4940660;28;20078;-66
2022/07/22 03:44:24;;;;;;;8.70;4.63;;;;;;;-144.47;58.49;53142.09;4954305;28;20443;-66
2022/07/22 03:46:49;;;;;;;8.32;4.80;;;;;;;-144.47;58.41;53158.00;4952671;28;20560;-64
2022/07/22 03:49:14;;;;;;;10.50;4.90;;;;;;;-144.47;58.35;53181.84;4953974;28;20111;-66
2022/07/22 03:51:40;;;;;;;9.38;5.07;;;;;;;-144.47;58.08;53169.91;4953631;28;20031;-68
2022/07/22 03:54:05;;;;;;;9.23;4.80;;;;;;;-144.47;58.43;53161.97;4952330;28;20027;-65
2022/07/22 03:56:31;;;;;;;10.77;4.60;;;;;;;-144.47;58.12;53150.06;4951681;28;20031;-63
2022/07/22 03:58:56;;;;;;;7.00;4.20;;;;;;;-144.47;58.18;53116.28;4953767;28;20042;-65
2022/07/22 04:01:21;;;;;;;9.52;4.70;;;;;;;-144.47;57.90;53154.03;4953286;28;20444;-64
2022/07/22 04:03:48;;;;;;;8.30;4.32;;;;;;;-144.47;58.06;53134.16;4953173;28;20078;-65
2022/07/22 04:06:14;;;;;;;10.55;4.70;;;;;;;-144.47;57.72;53161.97;4953134;28;20085;-65
2022/07/22 04:08:39;;;;;;;9.20;5.00;;;;;;;-144.47;57.71;53169.91;4952028;28;20055;-65
2022/07/22 04:11:04;;;;;;;9.48;4.68;;;;;;;-144.47;57.37;53140.13;4953211;28;20027;-67
2022/07/22 04:13:29;;;;;;;11.10;5.40;;;;;;;-144.47;57.28;53158.00;4953627;28;20473;-64
2022/07/22 04:15:55;;;;;;;7.60;4.13;;;;;;;-144.47;57.04;53158.00;4953485;28;20019;-67
2022/07/22 04:18:20;;;;;;;9.18;4.53;;;;;;;-144.47;56.80;53124.22;4952478;28;20034;-65
2022/07/22 04:20:46;;;;;;;7.30;4.57;;;;;;;-144.47;56.69;53177.88;4952591;28;20167;-66
2022/07/22 04:23:12;;;;;;;7.95;3.95;;;;;;;-144.47;56.59;53152.03;4950887;28;20038;-66
2022/07/22 04:25:37;;;;;;;7.88;4.30;;;;;;;-144.47;56.54;53158.00;4952260;28;20039;-64
2022/07/22 04:28:03;;;;;;;7.93;4.40;;;;;;;-144.47;56.52;53126.22;4950004;28;20227;-66
2022/07/22 04:30:28;;;;;;;9.82;5.13;;;;;;;-144.47;56.34;53158.00;4949438;28;20031;-65
2022/07/22 04:32:53;;;;;;;7.93;4.03;;;;;;;-144.47;56.50;53148.06;4951632;28;20023;-65
2022/07/22 04:35:20;;;;;;;9.55;4.75;;;;;;;-144.47;56.44;53144.09;4954146;28;20023;-72
2022/07/22 04:37:46;;;;;;;9.15;4.28;;;;;;;-144.47;56.45;53136.16;4952748;28;20059;-67
2022/07/22 04:40:12;;;;;;;7.47;3.83;;;;;;;-144.47;56.38;53132.19;4944318;28;20115;-66
2022/07/22 04:42:37;;;;;;;9.10;4.00;;;;;;;-144.47;56.31;53161.97;4938605;28;20027;-65
2022/07/22 04:45:03;;;;;;;8.55;4.32;;;;;;;-144.47;56.19;53160.00;4949930;29;20027;-66
2022/07/22 04:47:28;;;;;;;8.18;4.45;;;;;;;-144.47;55.98;53124.22;4950391;28;20022;-66
2022/07/22 04:49:54;;;;;;;6.78;4.25;;;;;;;-144.47;55.88;53138.13;4951430;28;20500;-66
2022/07/22 04:52:19;;;;;;;9.10;4.40;;;;;;;-144.47;55.87;53142.09;4950774;28;20023;-66
2022/07/22 04:54:44;;;;;;;7.38;4.13;;;;;;;-144.47;55.69;53173.88;4950002;28;20031;-65
2022/07/22 04:57:10;;;;;;;8.15;3.90;;;;;;;-144.47;55.67;53150.06;4947705;28;20073;-64
2022/07/22 04:59:35;;;;;;;9.55;4.95;;;;;;;-144.47;55.38;53110.31;4954482;28;20524;-67
2022/07/22 05:02:01;;;;;;;7.35;4.10;;;;;;;-144.47;55.23;53150.06;4956806;28;20030;-66
2022/07/22 05:04:26;;;;;;;10.50;3.78;;;;;;;-144.47;55.27;53156.00;4953739;28;20034;-67
2022/07/22 05:06:52;;;;;;;8.15;4.22;;;;;;;-144.47;55.10;53158.00;4950968;28;20038;-66
2022/07/22 05:09:17;;;;;;;6.85;3.95;;;;;;;-144.47;54.73;53122.25;4953846;28;20027;-65
2022/07/22 05:11:42;;;;;;;10.68;4.30;;;;;;;-144.47;54.70;53154.03;4952504;28;20023;-66
2022/07/22 05:14:08;;;;;;;7.43;4.03;;;;;;;-144.47;54.61;53110.31;4956319;28;20492;-66
2022/07/22 05:16:37;;;;;;;7.53;4.30;;;;;;;-144.47;54.16;53144.09;4952433;28;20031;-65
2022/07/22 05:19:02;;;;;;;9.02;4.70;;;;;;;-144.47;54.33;53144.09;4951674;28;20508;-66
2022/07/22 05:21:27;;;;;;;12.90;4.57;;;;;;;-144.47;54.39;53118.28;4954788;28;20069;-65
2022/07/22 05:23:53;;;;;;;8.27;3.97;;;;;;;-144.47;54.37;53114.31;4950734;28;20422;-66
2022/07/22 05:26:18;;;;;;;7.80;4.55;;;;;;;-144.47;54.63;53118.28;4953396;28;20050;-67
2022/07/22 05:28:43;;;;;;;7.60;4.28;;;;;;;-144.47;54.68;53108.34;4954812;28;20023;-66
2022/07/22 05:31:09;;;;;;;7.80;3.78;;;;;;;-144.47;54.85;53114.31;4950618;28;20150;-66
2022/07/22 05:33:34;;;;;;;6.85;4.05;;;;;;;-144.47;54.73;53138.13;4951140;28;20042;-66
2022/07/22 05:36:00;;;;;;;7.35;3.63;;;;;;;-144.47;54.59;53106.34;4948638;28;20115;-65
2022/07/22 05:38:25;;;;;;;8.63;4.05;;;;;;;-144.47;54.10;53118.28;4951938;28;20081;-66
2022/07/22 05:40:50;;;;;;;8.00;3.60;;;;;;;-144.47;54.28;53156.00;4955077;28;20039;-66
2022/07/22 05:43:16;;;;;;;7.13;3.53;;;;;;;-144.47;54.07;53120.25;4954909;28;20118;-66
2022/07/22 05:45:41;;;;;;;8.68;3.42;;;;;;;-144.47;53.91;53142.09;4946983;28;20106;-66
2022/07/22 05:48:07;;;;;;;6.03;3.53;;;;;;;-144.47;54.18;53161.97;4951008;28;20118;-66
2022/07/22 05:50:32;;;;;;;8.00;3.70;;;;;;;-144.47;54.05;53086.50;4951190;28;20061;-66
2022/07/22 05:52:57;;;;;;;10.32;3.90;;;;;;;-144.47;54.08;53165.94;4949923;28;20059;-65
2022/07/22 05:55:23;;;;;;;9.13;3.70;;;;;;;-144.47;54.16;53154.03;4950099;28;20106;-65
2022/07/22 05:57:48;;;;;;;9.35;3.92;;;;;;;-144.47;54.35;53136.16;4943969;29;20473;-65
2022/07/22 06:00:14;;;;;;;8.00;3.50;;;;;;;-144.47;54.63;53132.19;4945356;28;20138;-64
2022/07/22 06:02:39;;;;;;;8.98;3.88;;;;;;;-144.47;54.76;53100.41;4948771;28;20023;-66
2022/07/22 06:05:05;;;;;;;6.75;4.28;;;;;;;-144.47;54.57;53114.31;4949102;28;20138;-67
2022/07/22 06:07:31;;;;;;;10.57;4.72;;;;;;;-144.47;54.48;53154.03;4948974;28;20023;-65
2022/07/22 06:09:56;;;;;;;9.00;3.88;;;;;;;-144.47;54.25;53146.09;4951669;28;20023;-65
2022/07/22 06:12:22;;;;;;;6.57;3.70;;;;;;;-144.47;53.89;53138.13;4948438;28;20725;-66
2022/07/22 06:14:47;;;;;;;8.75;3.95;;;;;;;-144.47;53.73;53130.19;4950904;28;20389;-66
2022/07/22 06:17:13;;;;;;;7.28;3.45;;;;;;;-144.47;53.19;53134.16;4949781;28;20095;-67
2022/07/22 06:19:39;;;;;;;7.03;3.80;;;;;;;-144.47;53.01;53144.09;4949898;28;20053;-67
2022/07/22 06:22:04;;;;;;;7.85;3.65;;;;;;;-144.47;52.32;53130.19;4949085;28;20568;-66
2022/07/22 06:24:30;;;;;;;6.05;3.35;;;;;;;-144.47;52.22;53110.31;4950107;28;20082;-66
2022/07/22 06:26:55;;;;;;;6.72;3.10;;;;;;;-144.47;52.37;53148.06;4947694;28;20437;-66
2022/07/22 06:29:21;;;;;;;6.88;3.42;;;;;;;-144.47;52.02;53118.28;4949285;28;20027;-66
2022/07/22 06:31:46;;;;;;;5.97;3.05;;;;;;;-144.47;52.39;53118.28;4949731;28;20039;-67
2022/07/22 06:34:11;;;;;;;5.82;3.05;;;;;;;-144.47;52.51;53116.28;4958759;28;20031;-66
2022/07/22 06:36:37;;;;;;;6.18;3.30;;;;;;;-144.47;52.49;53138.13;4949609;28;20074;-66
2022/07/22 06:39:03;;;;;;;7.22;3.83;;;;;;;-144.47;52.59;53118.28;4949229;28;20062;-66
2022/07/22 06:41:28;;;;;;;10.98;3.42;;;;;;;-144.47;52.85;53116.28;4950551;28;20194;-66
2022/07/22 06:43:53;;;;;;;7.72;3.55;;;;;;;-144.47;52.65;53106.34;4948910;28;20398;-65
2022/07/22 06:46:19;;;;;;;5.82;3.60;;;;;;;-144.47;52.51;53132.19;4949250;28;20066;-66
2022/07/22 06:48:44;;;;;;;7.50;3.97;;;;;;;-144.47;52.28;53112.31;4946968;28;20055;-67
2022/07/22 06:51:09;;;;;;;6.97;3.40;;;;;;;-144.47;52.29;53126.22;4950382;28;20027;-67
2022/07/22 06:53:35;;;;;;;7.55;3.88;;;;;;;-144.47;52.52;53144.09;4947685;28;20085;-67
2022/07/22 06:56:00;;;;;;;10.23;3.38;;;;;;;-144.47;52.72;53116.28;4949610;28;20031;-66
2022/07/22 06:58:26;;;;;;;8.23;3.90;;;;;;;-144.47;52.42;53130.19;4948355;28;20109;-66
2022/07/22 07:00:51;;;;;;;9.75;3.28;;;;;;;-144.47;52.25;53122.25;4949106;28;20469;-66
2022/07/22 07:03:17;;;;;;;9.55;3.22;;;;;;;-144.47;51.77;53118.28;4948366;28;20075;-67
2022/07/22 07:05:42;;;;;;;6.63;3.05;;;;;;;-144.47;51.52;53142.09;4948735;28;20393;-67
2022/07/22 07:08:08;;;;;;;5.93;3.00;;;;;;;-144.47;50.40;53108.34;4961732;28;20023;-66
2022/07/22 07:10:33;;;;;;;5.85;2.55;;;;;;;-144.47;50.58;53110.31;4949374;28;20042;-67
2022/07/22 07:12:58;;;;;;;5.28;2.35;;;;;;;-144.47;50.63;53112.31;4949601;28;20046;-65
2022/07/22 07:15:25;;;;;;;4.97;2.65;;;;;;;-144.47;50.32;53128.22;4948847;28;20538;-66
2022/07/22 07:17:56;;;;;;;2.88;1.60;;;;;;;-144.47;49.48;53112.31;4939286;28;20067;-67
2022/07/22 07:20:22;;;;;;;8.95;2.40;;;;;;;-144.47;49.26;53102.38;4949958;28;20109;-67
2022/07/22 07:22:48;;;;;;;7.78;2.50;;;;;;;-144.47;49.56;53112.31;4947626;28;20023;-66
2022/07/22 07:25:14;;;;;;;4.60;2.45;;;;;;;-144.47;49.21;53116.28;4948216;28;20027;-65
2022/07/22 07:27:39;;;;;;;7.38;2.67;;;;;;;-144.47;49.43;53136.16;4948167;28;20038;-67
2022/07/22 07:30:06;;;;;;;6.22;2.45;;;;;;;-144.47;49.21;53122.25;4948701;28;20490;-66
2022/07/22 07:32:31;;;;;;;5.32;2.75;;;;;;;-144.47;49.22;53102.38;4950053;28;20161;-67
2022/07/22 07:34:57;;;;;;;3.55;2.17;;;;;;;-144.47;49.12;53086.50;4960691;28;20110;-67
2022/07/22 07:37:22;;;;;;;4.70;2.30;;;;;;;-144.47;49.33;53144.09;4950753;28;20027;-67
2022/07/22 07:39:47;;;;;;;4.63;2.22;;;;;;;-144.47;48.85;53100.41;4952092;28;20085;-66
2022/07/22 07:42:13;;;;;;;8.73;3.05;;;;;;;-144.47;48.61;53108.34;4948658;28;20039;-67
2022/07/22 07:44:38;;;;;;;5.43;2.75;;;;;;;-144.47;48.11;53094.44;4955011;28;20509;-67
2022/07/22 07:47:04;;;;;;;4.78;2.63;;;;;;;-144.47;48.26;53122.25;4951361;28;20374;-66
2022/07/22 07:49:29;;;;;;;6.35;2.50;;;;;;;-144.47;48.21;53092.44;4952490;28;20031;-67
2022/07/22 07:51:55;;;;;;;6.07;2.10;;;;;;;-144.47;47.61;53068.63;4955537;28;20034;-66
2022/07/22 07:54:20;;;;;;;5.25;2.22;;;;;;;-144.47;47.50;53171.91;4953990;28;20054;-67
2022/07/22 07:56:46;;;;;;;4.40;2.10;;;;;;;-144.47;47.13;53096.41;4950791;28;20042;-67
2022/07/22 07:59:11;;;;;;;3.78;2.00;;;;;;;-144.47;47.62;53098.41;4953792;28;20050;-67
2022/07/22 08:01:36;;;;;;;7.00;2.35;;;;;;;-144.47;47.75;53116.28;4953625;28;20645;-68
2022/07/22 08:04:02;;;;;;;3.83;2.13;;;;;;;-144.47;47.86;53098.41;4954916;28;20039;-67
2022/07/22 08:06:27;;;;;;;4.15;2.30;;;;;;;-144.47;47.70;53092.44;4955323;28;20062;-67
2022/07/22 08:08:53;;;;;;;3.83;2.13;;;;;;;-144.47;47.99;53118.28;4955409;28;20027;-67
2022/07/22 08:11:18;;;;;;;5.20;2.63;;;;;;;-144.47;47.85;53124.22;4954475;28;20027;-66
2022/07/22 08:13:44;;;;;;;6.05;2.58;;;;;;;-144.47;47.69;53132.19;4952684;28;20042;-68
2022/07/22 08:16:09;;;;;;;5.70;2.78;;;;;;;-144.47;47.33;53112.31;4952801;28;20133;-67
2022/07/22 08:18:35;;;;;;;7.38;2.38;;;;;;;-144.47;47.07;53100.41;4952814;28;20507;-68
2022/07/22 08:21:01;;;;;;;3.13;1.80;;;;;;;-144.47;46.56;53096.41;4953890;28;20035;-66
2022/07/22 08:23:26;;;;;;;4.50;1.90;;;;;;;-144.47;46.56;53108.34;4951910;28;20031;-65
2022/07/22 08:25:52;;;;;;;9.63;2.95;;;;;;;-144.47;45.33;53118.28;4958436;28;20037;-65
2022/07/22 08:28:17;;;;;;;3.70;2.00;;;;;;;-144.47;44.88;53104.38;4955464;28;20034;-65
2022/07/22 08:30:43;;;;;;;6.28;1.80;;;;;;;-144.47;44.73;53096.41;4951899;28;20043;-66
2022/07/22 08:33:09;;;;;;;6.05;1.80;;;;;;;-144.47;44.65;53070.59;4953963;28;20031;-67
2022/07/22 08:35:34;;;;;;;3.38;1.98;;;;;;;-144.47;44.39;53078.53;4955655;28;20031;-67
2022/07/22 08:38:00;;;;;;;3.25;1.70;;;;;;;-144.47;44.44;53124.22;4952833;28;20087;-67
2022/07/22 08:40:25;;;;;;;6.93;1.95;;;;;;;-144.47;44.82;53066.63;4951379;28;20039;-66
2022/07/22 08:42:50;;;;;;;4.40;1.88;;;;;;;-144.47;44.46;53108.34;4947443;28;20413;-66
2022/07/22 08:45:16;;;;;;;9.45;2.03;;;;;;;-144.47;44.38;53078.53;4948986;28;20158;-66
2022/07/22 08:47:47;;;;;;;3.58;1.70;;;;;;;-144.47;43.42;53072.59;4949924;28;20390;-67
2022/07/22 08:50:13;;;;;;;5.28;1.90;;;;;;;-144.47;43.55;53078.53;4949945;28;20058;-67
2022/07/22 08:52:39;;;;;;;3.25;1.77;;;;;;;-144.47;42.92;53080.53;4949207;29;20031;-67
2022/07/22 08:55:05;;;;;;;4.13;1.75;;;;;;;-144.47;42.57;53098.41;4951211;28;20783;-68
2022/07/22 08:57:31;;;;;;;2.95;1.73;;;;;;;-144.47;42.00;53042.78;4951130;28;20053;-67
2022/07/22 08:59:59;;;;;;;5.97;1.77;;;;;;;-144.47;41.95;53068.63;4951482;28;20610;-66
2022/07/22 09:02:26;;;;;;;3.15;1.70;;;;;;;-144.47;41.80;53064.66;4950199;28;20023;-67
2022/07/22 09:05:03;;;;;;;3.25;1.50;;;;;;;-144.47;42.44;53044.78;4951067;28;20054;-67
2022/07/22 09:07:35;;;;;;;3.20;1.70;;;;;;;-144.47;41.87;53072.59;4950055;28;20024;-66
2022/07/22 09:10:04;;;;;;;4.03;1.60;;;;;;;-144.47;41.55;53052.72;4950169;28;20062;-67
2022/07/22 09:12:30;;;;;;;5.18;1.70;;;;;;;-144.47;42.00;53062.66;4951228;28;20485;-66
2022/07/22 09:14:56;;;;;;;6.63;1.67;;;;;;;-144.47;42.23;53060.66;4951103;28;20113;-66
2022/07/22 09:17:35;;;;;;;2.15;1.30;;;;;;;-144.47;42.64;53086.50;4941479;28;20020;-65
2022/07/22 09:20:14;;;;;;;9.30;1.60;;;;;;;-144.47;43.26;53062.66;4938265;29;20031;-65
2022/07/22 09:22:42;;;;;;;3.17;1.58;;;;;;;-144.47;43.12;53090.47;4947331;28;20034;-65
2022/07/22 09:25:19;;;;;;;2.67;1.25;;;;;;;-144.47;43.21;53096.41;4952894;28;20031;-65
2022/07/22 09:27:46;;;;;;;2.38;1.45;;;;;;;-144.47;43.07;53072.59;4951675;28;20027;-66
2022/07/22 09:30:18;;;;;;;3.25;1.67;;;;;;;-144.47;42.99;53038.81;4952161;28;20035;-65
2022/07/22 09:35:11;;;;;;;2.13;1.33;;;;;;;-144.47;42.56;53086.50;4982988;28;20130;-70
2022/07/22 09:38:01;;;;;;;2.42;1.40;;;;;;;-144.47;42.74;53086.50;4983819;28;20026;-67
2022/07/22 09:40:29;;;;;;;3.30;1.60;;;;;;;-144.47;43.03;53062.66;4984581;28;20542;-70
2022/07/22 09:42:57;;;;;;;5.20;1.60;;;;;;;-144.47;43.00;53104.38;4979314;28;20073;-70
2022/07/22 09:45:25;;;;;;;4.68;1.45;;;;;;;-144.47;43.17;53064.66;4983974;28;20061;-67
2022/07/22 09:47:50;;;;;;;5.93;1.48;;;;;;;-144.47;42.94;53038.81;4982270;28;20026;-67
2022/07/22 09:50:21;;;;;;;3.67;1.45;;;;;;;-144.47;42.87;53088.47;4982499;28;20396;-67
2022/07/22 09:52:48;;;;;;;2.20;1.48;;;;;;;-144.47;42.24;53032.88;4977581;28;20034;-68
2022/07/22 09:55:15;;;;;;;2.67;1.30;;;;;;;-144.47;42.32;53074.56;4983427;28;20026;-69
2022/07/22 09:57:41;;;;;;;6.78;1.50;;;;;;;-144.47;42.35;53070.59;4981655;28;20126;-69
2022/07/22 10:00:09;;;;;;;6.05;1.58;;;;;;;-144.47;42.27;53018.97;4982960;28;20093;-69
2022/07/22 10:02:48;;;;;;;4.32;1.58;;;;;;;-144.47;41.60;53088.47;4978796;28;20061;-68
2022/07/22 10:05:16;;;;;;;3.10;1.55;;;;;;;-144.47;41.79;53040.81;4983067;28;20388;-67
2022/07/22 10:07:43;;;;;;;4.38;1.42;;;;;;;-144.47;41.80;53092.44;4982096;28;20075;-70
2022/07/22 10:10:10;;;;;;;4.38;1.88;;;;;;;-144.47;41.88;53076.56;4993588;28;20451;-68
2022/07/22 10:12:38;;;;;;;2.38;1.42;;;;;;;-144.47;41.75;53062.66;4994471;28;20030;-69
2022/07/22 10:15:04;;;;;;;1.70;1.30;;;;;;;-144.47;41.25;53020.94;5000552;28;20033;-69
2022/07/22 10:17:32;;;;;;;1.90;1.25;;;;;;;-144.47;40.98;53056.69;4987239;28;20503;-69
2022/07/22 10:19:58;;;;;;;5.50;1.80;;;;;;;-144.47;40.91;53048.75;4993044;28;20095;-68
2022/07/22 10:22:38;;;;;;;3.58;1.42;;;;;;;-144.47;41.48;53058.69;5007289;28;20038;-68
2022/07/22 10:25:05;;;;;;;9.00;2.42;;;;;;;-144.47;42.94;53082.53;4999624;28;20035;-68
2022/07/22 10:27:46;;;;;;;7.07;1.48;;;;;;;-144.47;44.29;53094.44;4990616;28;20077;-68
2022/07/22 10:30:14;;;;;;;3.10;1.35;;;;;;;-144.47;44.56;53056.69;4997243;28;20022;-68
2022/07/22 10:32:40;;;;;;;3.42;1.80;;;;;;;-144.47;45.43;53094.44;5001295;28;20014;-68
2022/07/22 10:35:06;;;;;;;5.70;1.70;;;;;;;-144.47;45.71;53128.22;4988492;28;20093;-70
2022/07/22 10:37:34;;;;;;;9.07;1.63;;;;;;;-144.47;45.96;53102.38;5005231;28;20503;-68
2022/07/22 10:40:20;;;;;;;6.68;1.77;;;;;;;-144.47;45.57;53090.47;4995612;28;20467;-67
2022/07/22 10:43:00;;;;;;;6.05;1.70;;;;;;;-144.47;45.05;53090.47;4988441;28;20504;-70
2022/07/22 10:45:31;;;;;;;5.88;1.75;;;;;;;-144.47;44.27;53098.41;4988738;28;20029;-69
2022/07/22 10:48:00;;;;;;;32.75;2.88;;;;;;;-144.47;43.67;53094.44;4975192;28;20519;-70
2022/07/22 10:50:37;;;;;;;30.23;2.90;;;;;;;-144.47;44.21;53112.31;5000211;28;20073;-67
2022/07/22 10:53:04;;;;;;;2.55;1.60;;;;;;;-144.47;44.35;53082.53;4987441;28;20517;-69
2022/07/22 10:55:29;;;;;;;3.58;1.90;;;;;;;-144.47;44.52;53074.56;4989056;28;20082;-70
2022/07/22 10:57:55;;;;;;;7.10;1.80;;;;;;;-144.47;44.86;53112.31;5001528;28;20117;-68
2022/07/22 11:00:21;;;;;;;6.38;1.73;;;;;;;-144.47;44.29;53052.72;4988030;28;20496;-69
2022/07/22 11:02:46;;;;;;;4.80;1.90;;;;;;;-144.47;43.39;53050.75;5000767;28;20067;-69
2022/07/22 11:05:12;;;;;;;6.72;1.90;;;;;;;-144.47;43.24;53110.31;4983734;28;20469;-69
2022/07/22 11:07:45;;;;;;;7.75;1.92;;;;;;;-144.47;42.51;53090.47;4984380;28;20033;-67
2022/07/22 11:10:15;;;;;;;17.23;2.22;;;;;;;-144.47;42.34;53084.50;4992902;28;20512;-68
2022/07/22 11:12:41;;;;;;;2.95;1.88;;;;;;;-144.47;42.71;53066.63;5006751;28;20506;-67
2022/07/22 11:15:08;;;;;;;5.05;1.60;;;;;;;-144.47;42.35;53066.63;5012950;28;20021;-69